sensor_id;sensor_type;location;lat;lon;timestamp;pressure;altitude;pressure_sealevel;temperature;humidity
59419;BME280;45224;50.904;6.038;2022-11-20T00:00:47;99419.16;;;3.43;92.93
59419;BME280;45224;50.904;6.038;2022-11-20T00:02:17;99420.84;;;3.41;93.41
59419;BME280;45224;50.904;6.038;2022-11-20T00:03:48;99429.38;;;3.43;93.00
59419;BME280;45224;50.904;6.038;2022-11-20T00:05:19;99424.34;;;3.46;92.99
59419;BME280;45224;50.904;6.038;2022-11-20T00:06:50;99422.72;;;3.50;93.15
59419;BME280;45224;50.904;6.038;2022-11-20T00:08:21;99421.03;;;3.51;93.10
59419;BME280;45224;50.904;6.038;2022-11-20T00:09:51;99421.94;;;3.53;93.31
59419;BME280;45224;50.904;6.038;2022-11-20T00:11:24;99414.91;;;3.42;93.01
59419;BME280;45224;50.904;6.038;2022-11-20T00:12:55;99417.47;;;3.44;93.03
59419;BME280;45224;50.904;6.038;2022-11-20T00:14:25;99420.84;;;3.41;93.71
59419;BME280;45224;50.904;6.038;2022-11-20T00:16:01;99420.88;;;3.43;93.81
59419;BME280;45224;50.904;6.038;2022-11-20T00:17:32;99424.19;;;3.40;94.04
59419;BME280;45224;50.904;6.038;2022-11-20T00:19:02;99431.56;;;3.26;94.60
59419;BME280;45224;50.904;6.038;2022-11-20T00:20:33;99433.34;;;3.31;94.85
59419;BME280;45224;50.904;6.038;2022-11-20T00:22:03;99427.22;;;3.24;95.09
59419;BME280;45224;50.904;6.038;2022-11-20T00:23:34;99422.28;;;3.30;95.08
59419;BME280;45224;50.904;6.038;2022-11-20T00:25:04;99423.19;;;3.34;94.51
59419;BME280;45224;50.904;6.038;2022-11-20T00:26:35;99420.69;;;3.35;94.73
59419;BME280;45224;50.904;6.038;2022-11-20T00:28:05;99421.91;;;3.15;95.79
59419;BME280;45224;50.904;6.038;2022-11-20T00:29:36;99422.84;;;3.18;96.31
59419;BME280;45224;50.904;6.038;2022-11-20T00:31:12;99415.81;;;3.09;96.11
59419;BME280;45224;50.904;6.038;2022-11-20T00:32:43;99418.22;;;3.03;97.55
59419;BME280;45224;50.904;6.038;2022-11-20T00:34:13;99415.81;;;3.09;96.75
59419;BME280;45224;50.904;6.038;2022-11-20T00:35:44;99421.91;;;3.15;96.16
59419;BME280;45224;50.904;6.038;2022-11-20T00:37:14;99423.78;;;3.22;96.05
59419;BME280;45224;50.904;6.038;2022-11-20T00:38:45;99418.81;;;3.28;96.02
59419;BME280;45224;50.904;6.038;2022-11-20T00:40:16;99410.78;;;3.13;96.37
59419;BME280;45224;50.904;6.038;2022-11-20T00:41:46;99416.25;;;3.26;96.37
59419;BME280;45224;50.904;6.038;2022-11-20T00:43:17;99414.56;;;3.28;95.30
59419;BME280;45224;50.904;6.038;2022-11-20T00:44:47;99419.22;;;3.10;96.56
59419;BME280;45224;50.904;6.038;2022-11-20T00:46:20;99419.22;;;3.10;96.12
59419;BME280;45224;50.904;6.038;2022-11-20T00:47:51;99419.56;;;3.24;96.61
59419;BME280;45224;50.904;6.038;2022-11-20T00:49:21;99414.69;;;3.33;96.23
59419;BME280;45224;50.904;6.038;2022-11-20T00:50:52;99417.38;;;3.39;95.61
59419;BME280;45224;50.904;6.038;2022-11-20T00:52:23;99415.78;;;3.44;95.73
59419;BME280;45224;50.904;6.038;2022-11-20T00:53:57;99406.38;;;3.43;95.86
59419;BME280;45224;50.904;6.038;2022-11-20T00:55:28;99411.59;;;3.48;94.92
59419;BME280;45224;50.904;6.038;2022-11-20T00:56:58;99412.47;;;3.48;95.52
59419;BME280;45224;50.904;6.038;2022-11-20T00:58:39;99406.56;;;3.51;94.83
59419;BME280;45224;50.904;6.038;2022-11-20T01:00:10;99404.97;;;3.56;94.44
59419;BME280;45224;50.904;6.038;2022-11-20T01:01:41;99412.56;;;3.53;94.77
59419;BME280;45224;50.904;6.038;2022-11-20T01:03:11;99412.66;;;3.58;94.30
59419;BME280;45224;50.904;6.038;2022-11-20T01:04:42;99417.84;;;3.61;94.09
59419;BME280;45224;50.904;6.038;2022-11-20T01:06:23;99420.47;;;3.64;93.87
59419;BME280;45224;50.904;6.038;2022-11-20T01:07:54;99408.56;;;3.64;94.20
59419;BME280;45224;50.904;6.038;2022-11-20T01:09:24;99414.59;;;3.68;93.62
59419;BME280;45224;50.904;6.038;2022-11-20T01:11:01;99406.88;;;3.66;94.01
59419;BME280;45224;50.904;6.038;2022-11-20T01:12:32;99402.78;;;3.73;93.81
59419;BME280;45224;50.904;6.038;2022-11-20T01:14:05;99402.91;;;3.79;93.49
59419;BME280;45224;50.904;6.038;2022-11-20T01:15:36;99401.31;;;3.84;93.02
59419;BME280;45224;50.904;6.038;2022-11-20T01:17:06;99399.69;;;3.88;93.13
59419;BME280;45224;50.904;6.038;2022-11-20T01:18:39;99400.56;;;3.90;92.44
59419;BME280;45224;50.904;6.038;2022-11-20T01:20:10;99397.97;;;3.89;92.25
59419;BME280;45224;50.904;6.038;2022-11-20T01:21:42;99388.59;;;3.88;92.72
59419;BME280;45224;50.904;6.038;2022-11-20T01:23:13;99400.69;;;3.96;91.99
59419;BME280;45224;50.904;6.038;2022-11-20T01:24:43;99394.75;;;3.97;91.82
59419;BME280;45224;50.904;6.038;2022-11-20T01:26:17;99387.81;;;3.92;91.91
59419;BME280;45224;50.904;6.038;2022-11-20T01:27:48;99391.97;;;3.87;92.36
59419;BME280;45224;50.904;6.038;2022-11-20T01:29:23;99396.97;;;3.80;93.11
59419;BME280;45224;50.904;6.038;2022-11-20T01:30:54;99395.22;;;3.79;93.10
59419;BME280;45224;50.904;6.038;2022-11-20T01:32:24;99389.25;;;3.79;92.92
59419;BME280;45224;50.904;6.038;2022-11-20T01:33:57;99385.72;;;3.72;93.43
59419;BME280;45224;50.904;6.038;2022-11-20T01:35:27;99381.31;;;3.66;93.92
59419;BME280;45224;50.904;6.038;2022-11-20T01:36:58;99379.47;;;3.59;93.97
59419;BME280;45224;50.904;6.038;2022-11-20T01:38:28;99387.97;;;3.58;94.16
59419;BME280;45224;50.904;6.038;2022-11-20T01:39:59;99382.84;;;3.58;94.51
59419;BME280;45224;50.904;6.038;2022-11-20T01:41:30;99379.56;;;3.64;93.81
59419;BME280;45224;50.904;6.038;2022-11-20T01:43:20;99383.88;;;3.65;93.64
59419;BME280;45224;50.904;6.038;2022-11-20T01:44:57;99387.38;;;3.70;93.38
59419;BME280;45224;50.904;6.038;2022-11-20T01:46:28;99372.91;;;3.71;93.54
59419;BME280;45224;50.904;6.038;2022-11-20T01:47:58;99379.44;;;3.58;93.24
59419;BME280;45224;50.904;6.038;2022-11-20T01:49:47;99387.25;;;3.64;93.45
59419;BME280;45224;50.904;6.038;2022-11-20T01:51:26;99379.53;;;3.62;93.60
59419;BME280;45224;50.904;6.038;2022-11-20T01:53:03;99387.03;;;3.55;93.61
59419;BME280;45224;50.904;6.038;2022-11-20T01:54:40;99390.63;;;3.63;93.27
59419;BME280;45224;50.904;6.038;2022-11-20T01:56:13;99390.69;;;3.66;93.56
59419;BME280;45224;50.904;6.038;2022-11-20T01:57:45;99387.25;;;3.64;93.41
59419;BME280;45224;50.904;6.038;2022-11-20T01:59:18;99385.66;;;3.69;93.56
59419;BME280;45224;50.904;6.038;2022-11-20T02:00:49;99387.31;;;3.67;93.39
59419;BME280;45224;50.904;6.038;2022-11-20T02:02:20;99386.50;;;3.70;93.37
59419;BME280;45224;50.904;6.038;2022-11-20T02:03:51;99387.44;;;3.73;93.12
59419;BME280;45224;50.904;6.038;2022-11-20T02:05:37;99372.00;;;3.69;93.19
59419;BME280;45224;50.904;6.038;2022-11-20T02:07:09;99373.84;;;3.76;93.59
59419;BME280;45224;50.904;6.038;2022-11-20T02:08:40;99377.28;;;3.76;93.77
59419;BME280;45224;50.904;6.038;2022-11-20T02:10:11;99367.06;;;3.78;93.15
59419;BME280;45224;50.904;6.038;2022-11-20T02:11:42;99367.94;;;3.78;93.70
59419;BME280;45224;50.904;6.038;2022-11-20T02:13:12;99369.69;;;3.81;92.88
59419;BME280;45224;50.904;6.038;2022-11-20T02:15:01;99360.16;;;3.72;93.65
59419;BME280;45224;50.904;6.038;2022-11-20T02:16:45;99365.31;;;3.75;93.93
59419;BME280;45224;50.904;6.038;2022-11-20T02:18:19;99364.50;;;3.76;93.85
59419;BME280;45224;50.904;6.038;2022-11-20T02:19:49;99372.19;;;3.76;93.89
59419;BME280;45224;50.904;6.038;2022-11-20T02:23:05;99361.78;;;3.69;93.89
59419;BME280;45224;50.904;6.038;2022-11-20T02:24:39;99371.31;;;3.77;93.83
59419;BME280;45224;50.904;6.038;2022-11-20T02:26:12;99365.38;;;3.78;94.10
59419;BME280;45224;50.904;6.038;2022-11-20T02:27:44;99362.88;;;3.80;93.68
59419;BME280;45224;50.904;6.038;2022-11-20T02:29:19;99369.63;;;3.78;94.69
59419;BME280;45224;50.904;6.038;2022-11-20T02:30:53;99367.09;;;3.79;94.21
59419;BME280;45224;50.904;6.038;2022-11-20T02:32:26;99364.47;;;3.75;94.67
59419;BME280;45224;50.904;6.038;2022-11-20T02:33:57;99369.63;;;3.78;94.71
59419;BME280;45224;50.904;6.038;2022-11-20T02:36:58;99371.41;;;3.82;94.61
59419;BME280;45224;50.904;6.038;2022-11-20T02:38:29;99364.50;;;3.78;94.44
59419;BME280;45224;50.904;6.038;2022-11-20T02:40:00;99355.22;;;3.81;94.07
59419;BME280;45224;50.904;6.038;2022-11-20T02:41:35;99356.94;;;3.82;94.35
59419;BME280;45224;50.904;6.038;2022-11-20T02:43:06;99359.53;;;3.84;94.20
59419;BME280;45224;50.904;6.038;2022-11-20T02:44:37;99368.09;;;3.86;94.28
59419;BME280;45224;50.904;6.038;2022-11-20T02:46:07;99358.66;;;3.83;93.96
59419;BME280;45224;50.904;6.038;2022-11-20T02:47:38;99364.72;;;3.89;93.89
59419;BME280;45224;50.904;6.038;2022-11-20T02:49:08;99361.34;;;3.90;93.83
59419;BME280;45224;50.904;6.038;2022-11-20T02:50:39;99364.00;;;3.94;94.03
59419;BME280;45224;50.904;6.038;2022-11-20T02:52:10;99365.69;;;3.94;93.39
59419;BME280;45224;50.904;6.038;2022-11-20T02:53:40;99366.63;;;3.97;93.40
59419;BME280;45224;50.904;6.038;2022-11-20T02:55:11;99369.22;;;3.99;93.69
59419;BME280;45224;50.904;6.038;2022-11-20T02:56:42;99364.06;;;3.97;93.32
59419;BME280;45224;50.904;6.038;2022-11-20T02:58:12;99375.19;;;3.99;93.48
59419;BME280;45224;50.904;6.038;2022-11-20T02:59:43;99367.47;;;3.98;93.44
59419;BME280;45224;50.904;6.038;2022-11-20T03:01:13;99370.88;;;3.97;93.43
59419;BME280;45224;50.904;6.038;2022-11-20T03:02:44;99366.56;;;3.94;94.04
59419;BME280;45224;50.904;6.038;2022-11-20T03:04:15;99363.09;;;3.92;93.72
59419;BME280;45224;50.904;6.038;2022-11-20T03:05:45;99371.69;;;3.94;94.12
59419;BME280;45224;50.904;6.038;2022-11-20T03:07:16;99364.84;;;3.95;94.17
59419;BME280;45224;50.904;6.038;2022-11-20T03:08:46;99369.16;;;3.96;93.87
59419;BME280;45224;50.904;6.038;2022-11-20T03:10:16;99371.75;;;3.97;93.82
59419;BME280;45224;50.904;6.038;2022-11-20T03:11:47;99374.38;;;4.00;93.86
59419;BME280;45224;50.904;6.038;2022-11-20T03:13:17;99379.44;;;3.99;94.33
59419;BME280;45224;50.904;6.038;2022-11-20T03:14:48;99372.59;;;3.98;94.57
59419;BME280;45224;50.904;6.038;2022-11-20T03:16:20;99373.34;;;3.94;94.39
59419;BME280;45224;50.904;6.038;2022-11-20T03:17:54;99376.78;;;3.94;94.64
59419;BME280;45224;50.904;6.038;2022-11-20T03:19:25;99361.28;;;3.87;95.12
59419;BME280;45224;50.904;6.038;2022-11-20T03:20:59;99374.16;;;3.90;94.46
59419;BME280;45224;50.904;6.038;2022-11-20T03:22:30;99380.94;;;3.88;94.09
59419;BME280;45224;50.904;6.038;2022-11-20T03:24:00;99378.28;;;3.83;93.65
59419;BME280;45224;50.904;6.038;2022-11-20T03:25:31;99377.38;;;3.82;93.50
59419;BME280;45224;50.904;6.038;2022-11-20T03:27:01;99380.59;;;3.72;93.62
59419;BME280;45224;50.904;6.038;2022-11-20T03:28:32;99372.63;;;3.58;93.96
59419;BME280;45224;50.904;6.038;2022-11-20T03:30:03;99375.28;;;3.63;94.40
59419;BME280;45224;50.904;6.038;2022-11-20T03:31:38;99371.78;;;3.58;94.07
59419;BME280;45224;50.904;6.038;2022-11-20T03:33:12;99376.69;;;3.48;93.88
59419;BME280;45224;50.904;6.038;2022-11-20T03:34:42;99378.41;;;3.50;94.08
59419;BME280;45224;50.904;6.038;2022-11-20T03:36:15;99374.81;;;3.41;93.94
59419;BME280;45224;50.904;6.038;2022-11-20T03:37:45;99371.31;;;3.36;94.02
59419;BME280;45224;50.904;6.038;2022-11-20T03:39:16;99366.25;;;3.01;94.40
59419;BME280;45224;50.904;6.038;2022-11-20T03:40:46;99368.94;;;3.07;95.02
59419;BME280;45224;50.904;6.038;2022-11-20T03:42:17;99366.63;;;3.17;94.52
59419;BME280;45224;50.904;6.038;2022-11-20T03:44:07;99362.41;;;3.19;94.89
59419;BME280;45224;50.904;6.038;2022-11-20T03:45:38;99365.03;;;3.22;93.98
59419;BME280;45224;50.904;6.038;2022-11-20T03:47:08;99357.06;;;3.09;94.51
59419;BME280;45224;50.904;6.038;2022-11-20T03:48:39;99357.06;;;3.09;95.08
59419;BME280;45224;50.904;6.038;2022-11-20T03:50:11;99350.94;;;3.01;95.20
59419;BME280;45224;50.904;6.038;2022-11-20T03:51:43;99353.19;;;2.89;94.89
59419;BME280;45224;50.904;6.038;2022-11-20T03:53:15;99349.50;;;2.78;95.29
59419;BME280;45224;50.904;6.038;2022-11-20T03:54:45;99351.84;;;2.68;95.44
59419;BME280;45224;50.904;6.038;2022-11-20T03:56:18;99357.13;;;2.74;95.72
59419;BME280;45224;50.904;6.038;2022-11-20T03:57:49;99353.72;;;2.76;95.62
59419;BME280;45224;50.904;6.038;2022-11-20T03:59:19;99352.28;;;2.87;95.85
59419;BME280;45224;50.904;6.038;2022-11-20T04:00:49;99351.59;;;2.92;95.60
59419;BME280;45224;50.904;6.038;2022-11-20T04:02:20;99355.91;;;2.97;95.29
59419;BME280;45224;50.904;6.038;2022-11-20T04:03:52;99353.44;;;3.00;95.24
59419;BME280;45224;50.904;6.038;2022-11-20T04:05:23;99364.66;;;3.06;94.63
59419;BME280;45224;50.904;6.038;2022-11-20T04:06:53;99359.50;;;3.05;94.82
59419;BME280;45224;50.904;6.038;2022-11-20T04:08:24;99363.91;;;3.10;94.06
59419;BME280;45224;50.904;6.038;2022-11-20T04:09:54;99353.78;;;3.14;93.81
59419;BME280;45224;50.904;6.038;2022-11-20T04:11:30;99351.09;;;3.09;94.14
59419;BME280;45224;50.904;6.038;2022-11-20T04:13:00;99352.03;;;3.13;93.75
59419;BME280;45224;50.904;6.038;2022-11-20T04:14:31;99347.78;;;3.13;93.57
59419;BME280;45224;50.904;6.038;2022-11-20T04:16:01;99356.44;;;3.18;93.44
59419;BME280;45224;50.904;6.038;2022-11-20T04:17:31;99350.31;;;3.11;93.22
59419;BME280;45224;50.904;6.038;2022-11-20T04:19:04;99353.84;;;3.17;93.88
59419;BME280;45224;50.904;6.038;2022-11-20T04:20:35;99344.34;;;3.11;93.30
59419;BME280;45224;50.904;6.038;2022-11-20T04:22:05;99342.25;;;2.95;94.38
59419;BME280;45224;50.904;6.038;2022-11-20T04:23:36;99356.97;;;3.05;94.28
59419;BME280;45224;50.904;6.038;2022-11-20T04:25:07;99353.47;;;3.01;93.52
59419;BME280;45224;50.904;6.038;2022-11-20T04:26:38;99353.63;;;3.07;93.96
59419;BME280;45224;50.904;6.038;2022-11-20T04:28:09;99347.66;;;3.07;93.37
59419;BME280;45224;50.904;6.038;2022-11-20T04:29:39;99336.69;;;2.76;94.49
59419;BME280;45224;50.904;6.038;2022-11-20T04:31:13;99336.75;;;2.78;95.02
59419;BME280;45224;50.904;6.038;2022-11-20T04:32:44;99342.25;;;2.95;94.78
59419;BME280;45224;50.904;6.038;2022-11-20T04:34:14;99348.19;;;2.93;94.57
59419;BME280;45224;50.904;6.038;2022-11-20T04:35:46;99340.66;;;3.00;94.39
59419;BME280;45224;50.904;6.038;2022-11-20T04:37:18;99348.44;;;3.04;94.55
59419;BME280;45224;50.904;6.038;2022-11-20T04:38:53;99351.88;;;3.06;93.91
59419;BME280;45224;50.904;6.038;2022-11-20T04:40:24;99352.81;;;3.08;93.50
59419;BME280;45224;50.904;6.038;2022-11-20T04:41:54;99350.25;;;3.10;93.69
59419;BME280;45224;50.904;6.038;2022-11-20T04:43:48;99348.66;;;3.14;93.22
59419;BME280;45224;50.904;6.038;2022-11-20T04:45:19;99347.00;;;3.16;93.06
59419;BME280;45224;50.904;6.038;2022-11-20T04:46:50;99347.97;;;3.21;92.97
59419;BME280;45224;50.904;6.038;2022-11-20T04:48:21;99342.78;;;3.18;93.12
59419;BME280;45224;50.904;6.038;2022-11-20T04:49:51;99350.59;;;3.24;93.04
59419;BME280;45224;50.904;6.038;2022-11-20T04:51:22;99353.19;;;3.25;93.29
59419;BME280;45224;50.904;6.038;2022-11-20T04:52:52;99354.09;;;3.29;93.38
59419;BME280;45224;50.904;6.038;2022-11-20T04:54:23;99344.72;;;3.28;92.74
59419;BME280;45224;50.904;6.038;2022-11-20T04:56:02;99351.63;;;3.32;92.86
59419;BME280;45224;50.904;6.038;2022-11-20T04:57:33;99358.41;;;3.30;92.64
59419;BME280;45224;50.904;6.038;2022-11-20T04:59:04;99358.41;;;3.30;92.58
59419;BME280;45224;50.904;6.038;2022-11-20T05:00:34;99349.78;;;3.25;92.35
59419;BME280;45224;50.904;6.038;2022-11-20T05:02:05;99350.22;;;3.07;93.29
59419;BME280;45224;50.904;6.038;2022-11-20T05:03:35;99355.16;;;2.99;93.14
59419;BME280;45224;50.904;6.038;2022-11-20T05:05:06;99350.97;;;3.03;93.48
59419;BME280;45224;50.904;6.038;2022-11-20T05:06:36;99348.53;;;3.07;93.51
59419;BME280;45224;50.904;6.038;2022-11-20T05:08:07;99355.41;;;3.11;93.20
59419;BME280;45224;50.904;6.038;2022-11-20T05:09:37;99351.97;;;3.09;93.59
59419;BME280;45224;50.904;6.038;2022-11-20T05:11:11;99355.47;;;3.15;93.12
59419;BME280;45224;50.904;6.038;2022-11-20T05:12:41;99351.31;;;3.18;93.26
59419;BME280;45224;50.904;6.038;2022-11-20T05:14:12;99355.56;;;3.18;93.29
59419;BME280;45224;50.904;6.038;2022-11-20T05:15:42;99354.84;;;3.23;92.60
59419;BME280;45224;50.904;6.038;2022-11-20T05:17:13;99359.13;;;3.26;93.10
59419;BME280;45224;50.904;6.038;2022-11-20T05:18:43;99353.97;;;3.23;93.26
59419;BME280;45224;50.904;6.038;2022-11-20T05:20:14;99357.50;;;3.28;93.48
59419;BME280;45224;50.904;6.038;2022-11-20T05:21:44;99351.53;;;3.29;92.83
59419;BME280;45224;50.904;6.038;2022-11-20T05:23:15;99349.00;;;3.29;92.78
59419;BME280;45224;50.904;6.038;2022-11-20T05:24:45;99352.41;;;3.28;92.93
59419;BME280;45224;50.904;6.038;2022-11-20T05:26:21;99339.56;;;3.25;92.94
59419;BME280;45224;50.904;6.038;2022-11-20T05:27:52;99337.97;;;3.30;93.19
59419;BME280;45224;50.904;6.038;2022-11-20T05:29:23;99344.72;;;3.28;93.34
59419;BME280;45224;50.904;6.038;2022-11-20T05:30:54;99336.09;;;3.24;93.72
59419;BME280;45224;50.904;6.038;2022-11-20T05:32:24;99338.78;;;3.29;94.22
59419;BME280;45224;50.904;6.038;2022-11-20T05:33:56;99332.03;;;3.31;94.24
59419;BME280;45224;50.904;6.038;2022-11-20T05:35:26;99335.34;;;3.27;94.35
59419;BME280;45224;50.904;6.038;2022-11-20T05:36:57;99333.47;;;3.20;94.32
59419;BME280;45224;50.904;6.038;2022-11-20T05:38:27;99331.88;;;3.25;94.42
59419;BME280;45224;50.904;6.038;2022-11-20T05:39:58;99328.53;;;3.27;94.78
59419;BME280;45224;50.904;6.038;2022-11-20T05:41:29;99322.59;;;3.28;94.67
59419;BME280;45224;50.904;6.038;2022-11-20T05:42:59;99327.63;;;3.25;95.29
59419;BME280;45224;50.904;6.038;2022-11-20T05:44:30;99323.38;;;3.26;94.97
59419;BME280;45224;50.904;6.038;2022-11-20T05:46:01;99319.16;;;3.26;95.22
59419;BME280;45224;50.904;6.038;2022-11-20T05:47:33;99335.19;;;3.21;96.00
59419;BME280;45224;50.904;6.038;2022-11-20T05:49:04;99331.81;;;3.22;96.00
59419;BME280;45224;50.904;6.038;2022-11-20T05:50:35;99337.81;;;3.24;96.19
59419;BME280;45224;50.904;6.038;2022-11-20T05:52:05;99331.81;;;3.22;95.82
59419;BME280;45224;50.904;6.038;2022-11-20T05:53:36;99335.22;;;3.22;96.09
59419;BME280;45224;50.904;6.038;2022-11-20T05:55:07;99336.94;;;3.22;95.39
59419;BME280;45224;50.904;6.038;2022-11-20T05:56:37;99338.69;;;3.26;96.08
59419;BME280;45224;50.904;6.038;2022-11-20T05:58:08;99331.03;;;3.26;95.85
59419;BME280;45224;50.904;6.038;2022-11-20T05:59:38;99337.97;;;3.30;96.14
59419;BME280;45224;50.904;6.038;2022-11-20T06:02:41;99345.63;;;3.30;95.94
59419;BME280;45224;50.904;6.038;2022-11-20T06:04:11;99341.16;;;3.20;96.39
59419;BME280;45224;50.904;6.038;2022-11-20T06:05:42;99342.84;;;3.21;97.04
59419;BME280;45224;50.904;6.038;2022-11-20T06:07:12;99340.28;;;3.21;97.16
59419;BME280;45224;50.904;6.038;2022-11-20T06:08:43;99347.06;;;3.19;97.35
59419;BME280;45224;50.904;6.038;2022-11-20T06:10:14;99338.63;;;3.23;97.10
59419;BME280;45224;50.904;6.038;2022-11-20T06:11:45;99342.13;;;3.26;96.98
59419;BME280;45224;50.904;6.038;2022-11-20T06:13:15;99343.81;;;3.26;96.84
59419;BME280;45224;50.904;6.038;2022-11-20T06:14:45;99346.44;;;3.29;96.58
59419;BME280;45224;50.904;6.038;2022-11-20T06:16:18;99339.66;;;3.29;96.55
59419;BME280;45224;50.904;6.038;2022-11-20T06:17:52;99345.59;;;3.28;97.16
59419;BME280;45224;50.904;6.038;2022-11-20T06:19:23;99349.91;;;3.33;97.08
59419;BME280;45224;50.904;6.038;2022-11-20T06:21:01;99347.22;;;3.25;98.35
59419;BME280;45224;50.904;6.038;2022-11-20T06:22:32;99348.09;;;3.27;97.82
59419;BME280;45224;50.904;6.038;2022-11-20T06:24:02;99348.91;;;3.26;97.85
59419;BME280;45224;50.904;6.038;2022-11-20T06:25:37;99346.25;;;3.20;97.72
59419;BME280;45224;50.904;6.038;2022-11-20T06:27:07;99350.66;;;3.27;97.66
59419;BME280;45224;50.904;6.038;2022-11-20T06:28:38;99355.56;;;3.18;98.65
59419;BME280;45224;50.904;6.038;2022-11-20T06:30:09;99347.97;;;3.21;98.34
59419;BME280;45224;50.904;6.038;2022-11-20T06:31:40;99358.28;;;3.25;97.79
59419;BME280;45224;50.904;6.038;2022-11-20T06:33:12;99347.00;;;3.16;98.22
59419;BME280;45224;50.904;6.038;2022-11-20T06:34:43;99360.81;;;3.24;98.29
59419;BME280;45224;50.904;6.038;2022-11-20T06:36:15;99359.06;;;3.23;98.44
59419;BME280;45224;50.904;6.038;2022-11-20T06:37:45;99358.28;;;3.25;98.21
59419;BME280;45224;50.904;6.038;2022-11-20T06:39:16;99354.88;;;3.25;98.43
59419;BME280;45224;50.904;6.038;2022-11-20T06:40:46;99366.84;;;3.27;97.88
59419;BME280;45224;50.904;6.038;2022-11-20T06:42:17;99360.88;;;3.27;97.91
59419;BME280;45224;50.904;6.038;2022-11-20T06:43:48;99361.81;;;3.31;97.49
59419;BME280;45224;50.904;6.038;2022-11-20T06:45:18;99362.63;;;3.28;98.50
59419;BME280;45224;50.904;6.038;2022-11-20T06:46:49;99369.50;;;3.32;98.01
59419;BME280;45224;50.904;6.038;2022-11-20T06:48:19;99364.41;;;3.32;97.55
59419;BME280;45224;50.904;6.038;2022-11-20T06:49:50;99368.72;;;3.35;97.83
59419;BME280;45224;50.904;6.038;2022-11-20T06:51:21;99374.69;;;3.35;97.60
59419;BME280;45224;50.904;6.038;2022-11-20T06:52:51;99369.38;;;3.26;98.10
59419;BME280;45224;50.904;6.038;2022-11-20T06:54:21;99366.13;;;3.33;97.95
59419;BME280;45224;50.904;6.038;2022-11-20T06:55:55;99366.22;;;3.36;97.35
59419;BME280;45224;50.904;6.038;2022-11-20T06:57:26;99364.47;;;3.35;98.08
59419;BME280;45224;50.904;6.038;2022-11-20T06:58:56;99369.56;;;3.35;97.60
59419;BME280;45224;50.904;6.038;2022-11-20T07:00:27;99365.31;;;3.36;97.56
59419;BME280;45224;50.904;6.038;2022-11-20T07:01:57;99366.13;;;3.33;97.75
59419;BME280;45224;50.904;6.038;2022-11-20T07:03:28;99365.28;;;3.34;97.25
59419;BME280;45224;50.904;6.038;2022-11-20T07:04:58;99364.53;;;3.38;97.16
59419;BME280;45224;50.904;6.038;2022-11-20T07:06:29;99363.69;;;3.38;97.25
59419;BME280;45224;50.904;6.038;2022-11-20T07:07:59;99367.91;;;3.37;97.16
59419;BME280;45224;50.904;6.038;2022-11-20T07:09:29;99361.09;;;3.36;97.38
59419;BME280;45224;50.904;6.038;2022-11-20T07:11:02;99367.97;;;3.40;96.58
59419;BME280;45224;50.904;6.038;2022-11-20T07:12:33;99370.59;;;3.43;96.80
59419;BME280;45224;50.904;6.038;2022-11-20T07:14:03;99358.69;;;3.44;96.98
59419;BME280;45224;50.904;6.038;2022-11-20T07:15:34;99368.91;;;3.42;97.15
59419;BME280;45224;50.904;6.038;2022-11-20T07:17:04;99363.06;;;3.50;96.42
59419;BME280;45224;50.904;6.038;2022-11-20T07:18:35;99354.38;;;3.41;97.30
59419;BME280;45224;50.904;6.038;2022-11-20T07:20:06;99364.63;;;3.43;96.91
59419;BME280;45224;50.904;6.038;2022-11-20T07:21:37;99357.81;;;3.43;96.96
59419;BME280;45224;50.904;6.038;2022-11-20T07:23:07;99353.66;;;3.48;96.79
59419;BME280;45224;50.904;6.038;2022-11-20T07:24:38;99364.81;;;3.51;96.36
59419;BME280;45224;50.904;6.038;2022-11-20T07:26:10;99360.38;;;3.43;96.75
59419;BME280;45224;50.904;6.038;2022-11-20T07:27:40;99357.75;;;3.40;96.94
59419;BME280;45224;50.904;6.038;2022-11-20T07:29:11;99366.34;;;3.42;97.17
59419;BME280;45224;50.904;6.038;2022-11-20T07:30:41;99358.69;;;3.44;96.93
59419;BME280;45224;50.904;6.038;2022-11-20T07:32:11;99359.56;;;3.44;96.93
59419;BME280;45224;50.904;6.038;2022-11-20T07:33:42;99357.75;;;3.40;97.49
59419;BME280;45224;50.904;6.038;2022-11-20T07:35:13;99354.31;;;3.38;97.30
59419;BME280;45224;50.904;6.038;2022-11-20T07:36:43;99351.00;;;3.42;96.59
59419;BME280;45224;50.904;6.038;2022-11-20T07:38:14;99344.31;;;3.47;96.60
59419;BME280;45224;50.904;6.038;2022-11-20T07:39:44;99339.22;;;3.49;96.40
59419;BME280;45224;50.904;6.038;2022-11-20T07:41:15;99340.84;;;3.47;96.20
59419;BME280;45224;50.904;6.038;2022-11-20T07:42:49;99344.38;;;3.51;96.95
59419;BME280;45224;50.904;6.038;2022-11-20T07:44:20;99336.66;;;3.49;96.38
59419;BME280;45224;50.904;6.038;2022-11-20T07:45:50;99340.13;;;3.53;95.99
59419;BME280;45224;50.904;6.038;2022-11-20T07:47:21;99334.16;;;3.51;96.68
59419;BME280;45224;50.904;6.038;2022-11-20T07:48:51;99341.91;;;3.57;96.59
59419;BME280;45224;50.904;6.038;2022-11-20T07:50:22;99342.72;;;3.54;96.57
59419;BME280;45224;50.904;6.038;2022-11-20T07:51:53;99341.03;;;3.55;96.62
59419;BME280;45224;50.904;6.038;2022-11-20T07:53:24;99336.00;;;3.59;96.11
59419;BME280;45224;50.904;6.038;2022-11-20T07:54:54;99343.69;;;3.59;96.32
59419;BME280;45224;50.904;6.038;2022-11-20T07:56:25;99346.28;;;3.61;95.93
59419;BME280;45224;50.904;6.038;2022-11-20T07:57:56;99342.00;;;3.61;96.12
59419;BME280;45224;50.904;6.038;2022-11-20T07:59:27;99341.13;;;3.59;96.17
59419;BME280;45224;50.904;6.038;2022-11-20T08:00:57;99350.53;;;3.60;96.26
59419;BME280;45224;50.904;6.038;2022-11-20T08:02:28;99348.00;;;3.62;95.74
59419;BME280;45224;50.904;6.038;2022-11-20T08:03:58;99356.50;;;3.61;96.09
59419;BME280;45224;50.904;6.038;2022-11-20T08:05:28;99355.69;;;3.62;96.39
59419;BME280;45224;50.904;6.038;2022-11-20T08:06:59;99357.34;;;3.61;96.70
59419;BME280;45224;50.904;6.038;2022-11-20T08:08:30;99358.25;;;3.62;96.55
59419;BME280;45224;50.904;6.038;2022-11-20T08:10:00;99356.56;;;3.64;96.40
59419;BME280;45224;50.904;6.038;2022-11-20T08:11:30;99354.84;;;3.63;96.20
59419;BME280;45224;50.904;6.038;2022-11-20T08:13:19;99349.81;;;3.68;96.61
59419;BME280;45224;50.904;6.038;2022-11-20T08:15:08;99351.59;;;3.70;96.09
59419;BME280;45224;50.904;6.038;2022-11-20T08:16:41;99348.13;;;3.68;96.18